createdAt,value
2016-09-10T00:00:12.770Z,95.21
2016-09-10T00:01:12.884Z,95.5
2016-09-10T00:02:12.822Z,95.55
2016-09-10T00:03:13.186Z,95.5
2016-09-10T00:04:12.873Z,95.79
2016-09-10T00:05:12.896Z,96.22
2016-09-10T00:07:12.957Z,96.22
2016-09-10T00:08:27.901Z,96.13
2016-09-10T00:09:13.007Z,96.42
2016-09-10T00:10:13.030Z,96.42
2016-09-10T00:11:13.082Z,96.7
2016-09-10T00:12:13.085Z,96.51
2016-09-10T00:13:13.124Z,97.09
2016-09-10T00:14:13.176Z,96.8
2016-09-10T00:15:13.173Z,96.89
2016-09-10T00:16:13.800Z,96.89
2016-09-10T00:17:13.256Z,96.94
2016-09-10T00:18:13.261Z,97.47
2016-09-10T00:19:13.281Z,97.38
2016-09-10T00:20:13.323Z,96.89
2016-09-10T00:21:13.317Z,97.38
2016-09-10T00:22:13.339Z,97.28
2016-09-10T00:23:28.413Z,97.09
2016-09-10T00:24:13.397Z,96.99
2016-09-10T00:25:13.483Z,97.23
2016-09-10T00:26:13.445Z,97.56
2016-09-10T00:27:13.473Z,97.61
2016-09-10T00:28:13.499Z,97.9
2016-09-10T00:29:13.524Z,97.81
2016-09-10T00:30:13.557Z,97.9
2016-09-10T00:31:13.895Z,97.71
2016-09-10T00:32:13.615Z,97.81
2016-09-10T00:33:13.637Z,98
2016-09-10T00:34:13.994Z,98.1
2016-09-10T00:35:13.792Z,98.38
2016-09-10T00:36:13.705Z,98.48
2016-09-10T00:37:14.038Z,98.38
2016-09-10T00:38:13.908Z,98.67
2016-09-10T00:39:13.811Z,98.67
2016-09-10T00:40:13.817Z,98.1
2016-09-10T00:41:13.882Z,98.1
2016-09-10T00:42:13.867Z,98.19
2016-09-10T00:43:14.203Z,98.19
2016-09-10T00:46:14.315Z,98.19
2016-09-10T00:47:14.012Z,98.28
2016-09-10T00:48:14.028Z,98.57
2016-09-10T00:49:14.069Z,98.77
2016-09-10T00:50:14.071Z,98.96
2016-09-10T00:51:14.102Z,98.96
2016-09-10T00:52:14.139Z,98.86
2016-09-10T00:53:14.151Z,98.77
2016-09-10T00:54:14.480Z,99.34
2016-09-10T00:55:29.121Z,98.86
2016-09-10T00:56:14.571Z,99.34
2016-09-10T00:57:14.250Z,99.34
2016-09-10T00:58:14.296Z,98.96
2016-09-10T00:59:14.307Z,99.1
2016-09-10T01:00:14.331Z,99.29
2016-09-10T01:01:14.741Z,99.05
2016-09-10T01:02:14.381Z,98.77
2016-09-10T01:03:14.408Z,98.96
2016-09-10T01:04:14.433Z,99.63
2016-09-10T01:05:14.467Z,99.34
2016-09-10T01:06:14.479Z,99.19
2016-09-10T01:08:14.549Z,99.58
2016-09-10T01:09:14.874Z,99.77
2016-09-10T01:10:14.592Z,99.58
2016-09-10T01:11:29.537Z,99.77
2016-09-10T01:12:14.642Z,99.58
2016-09-10T01:13:14.667Z,99.99
2016-09-10T01:14:15.002Z,99.99
2016-09-10T01:15:14.722Z,99.99
2016-09-10T01:16:15.044Z,99.99
2016-09-10T01:17:14.769Z,99.99
2016-09-10T01:19:14.821Z,99.99
2016-09-10T01:20:14.971Z,99.99
2016-09-10T01:21:14.868Z,99.99
2016-09-10T01:22:14.910Z,99.99
2016-09-10T01:23:14.921Z,99.99
2016-09-10T01:25:14.976Z,99.99
2016-09-10T01:26:15.052Z,99.99
2016-09-10T01:27:29.948Z,99.99
2016-09-10T01:28:15.049Z,99.99
2016-09-10T01:29:15.093Z,99.99
2016-09-10T01:30:15.183Z,99.99
2016-09-10T01:31:15.122Z,99.99
2016-09-10T01:32:15.155Z,99.99
2016-09-10T01:33:15.178Z,99.99
2016-09-10T01:34:15.205Z,99.99
2016-09-10T01:35:15.230Z,99.99
2016-09-10T01:36:15.253Z,99.99
2016-09-10T01:37:15.278Z,99.99
2016-09-10T01:38:15.303Z,99.99
2016-09-10T01:39:15.350Z,99.96
2016-09-10T01:40:15.360Z,99.99
2016-09-10T01:41:15.380Z,99.58
2016-09-10T01:42:15.409Z,99.99
2016-09-10T01:43:30.357Z,99.99
2016-09-10T01:44:15.484Z,99.99
2016-09-10T01:45:15.487Z,99.99
2016-09-10T01:46:15.862Z,99.99
2016-09-10T01:47:15.559Z,99.99
2016-09-10T01:48:15.565Z,99.96
2016-09-10T01:49:15.613Z,99.99
2016-09-10T01:50:15.609Z,99.87
2016-09-10T01:51:15.655Z,99.58
2016-09-10T01:52:15.774Z,99.48
2016-09-10T01:53:15.702Z,99.68
2016-09-10T01:54:15.717Z,99.77
2016-09-10T01:55:15.748Z,99.39
2016-09-10T01:56:15.772Z,99.68
2016-09-10T01:57:15.803Z,99.39
2016-09-10T01:58:30.744Z,99.1
2016-09-10T01:59:15.892Z,99.39
2016-09-10T02:00:15.890Z,99.96
2016-09-10T02:01:15.899Z,99.77
2016-09-10T02:02:15.921Z,99.87
2016-09-10T02:03:15.947Z,99.29
2016-09-10T02:04:15.994Z,99.01
2016-09-10T02:06:16.029Z,99.19
2016-09-10T02:07:16.048Z,99.99
2016-09-10T02:09:16.113Z,99.99
2016-09-10T02:10:16.132Z,99.99
2016-09-10T02:11:16.150Z,99.99
2016-09-10T02:12:16.183Z,99.99
2016-09-10T02:13:16.212Z,99.99
2016-09-10T02:14:16.234Z,99.99
2016-09-10T02:15:16.589Z,99.99
2016-09-10T02:16:16.307Z,99.99
2016-09-10T02:17:16.697Z,99.99
2016-09-10T02:18:16.357Z,99.96
2016-09-10T02:19:16.365Z,99.99
2016-09-10T02:20:16.402Z,99.99
2016-09-10T02:21:16.422Z,99.99
2016-09-10T02:22:16.429Z,99.99
2016-09-10T02:23:16.473Z,99.99
2016-09-10T02:24:16.504Z,99.99
2016-09-10T02:25:16.581Z,99.99
2016-09-10T02:26:16.562Z,99.99
2016-09-10T02:27:16.906Z,99.99
2016-09-10T02:28:16.591Z,99.99
2016-09-10T02:29:16.611Z,99.99
2016-09-10T02:30:31.582Z,99.77
2016-09-10T02:31:16.662Z,99.99
2016-09-10T02:32:16.714Z,99.99
2016-09-10T02:33:16.716Z,99.99
2016-09-10T02:34:16.745Z,99.99
2016-09-10T02:35:16.766Z,99.99
2016-09-10T02:36:16.794Z,99.99
2016-09-10T02:37:16.876Z,99.99
2016-09-10T02:38:16.846Z,99.99
2016-09-10T02:39:17.219Z,99.99
2016-09-10T02:40:16.898Z,99.99
2016-09-10T02:41:16.934Z,99.99
2016-09-10T02:42:16.944Z,99.99
2016-09-10T02:43:17.398Z,99.99
2016-09-10T02:44:16.991Z,99.99
2016-09-10T02:45:17.020Z,99.99
2016-09-10T02:46:31.973Z,99.99
2016-09-10T02:47:17.076Z,99.99
2016-09-10T02:48:17.105Z,99.99
2016-09-10T02:49:17.464Z,99.99
2016-09-10T02:50:17.149Z,99.99
2016-09-10T02:51:18.123Z,99.99
2016-09-10T02:52:17.210Z,99.99
2016-09-10T02:53:17.257Z,99.99
2016-09-10T02:54:17.248Z,99.99
2016-09-10T02:55:17.349Z,99.99
2016-09-10T02:56:17.303Z,99.99
2016-09-10T02:57:17.326Z,99.99
2016-09-10T02:58:17.348Z,99.99
2016-09-10T02:59:17.380Z,99.99
2016-09-10T03:00:17.413Z,99.99
2016-09-10T03:01:17.737Z,99.99
2016-09-10T03:02:32.381Z,99.99
2016-09-10T03:03:17.487Z,99.99
2016-09-10T03:04:17.542Z,99.99
2016-09-10T03:05:17.529Z,99.99
2016-09-10T03:06:17.648Z,99.99
2016-09-10T03:07:17.577Z,99.99
2016-09-10T03:08:17.627Z,99.99
2016-09-10T03:09:17.635Z,99.99
2016-09-10T03:12:17.711Z,99.99
2016-09-10T03:13:17.735Z,99.99
2016-09-10T03:14:17.772Z,99.99
2016-09-10T03:15:17.797Z,99.99
2016-09-10T03:16:17.810Z,99.99
2016-09-10T03:17:17.838Z,99.99
2016-09-10T03:18:32.783Z,99.99
2016-09-10T03:19:17.903Z,99.99
2016-09-10T03:20:17.920Z,99.99
2016-09-10T03:21:17.939Z,99.99
2016-09-10T03:22:17.962Z,99.99
2016-09-10T03:23:17.990Z,99.99
2016-09-10T03:24:18.011Z,99.99
2016-09-10T03:25:18.051Z,99.99
2016-09-10T03:26:18.064Z,99.99
2016-09-10T03:27:18.096Z,99.99
2016-09-10T03:28:18.119Z,99.99
2016-09-10T03:29:18.140Z,99.99
2016-09-10T03:30:18.563Z,99.99
2016-09-10T03:31:18.190Z,99.99
2016-09-10T03:32:18.225Z,99.99
2016-09-10T03:33:33.168Z,99.99
2016-09-10T03:34:18.272Z,99.99
2016-09-10T03:35:18.300Z,99.99
2016-09-10T03:36:18.313Z,99.99
2016-09-10T03:37:18.685Z,99.99
2016-09-10T03:38:18.387Z,99.99
2016-09-10T03:39:18.696Z,99.99
2016-09-10T03:40:18.422Z,99.99
2016-09-10T03:41:18.756Z,99.99
2016-09-10T03:42:18.498Z,99.99
2016-09-10T03:43:18.496Z,99.99
2016-09-10T03:44:18.518Z,99.99
2016-09-10T03:45:18.854Z,99.99
2016-09-10T03:47:18.593Z,99.99
2016-09-10T03:48:18.632Z,99.99
2016-09-10T03:49:18.652Z,99.99
2016-09-10T03:50:18.679Z,99.99
2016-09-10T03:51:18.808Z,99.99
2016-09-10T03:52:18.770Z,99.99
2016-09-10T03:53:18.746Z,99.99
2016-09-10T03:54:18.811Z,99.99
2016-09-10T03:55:19.121Z,99.99
2016-09-10T03:56:18.841Z,99.99
2016-09-10T03:57:18.850Z,99.99
2016-09-10T03:58:18.874Z,99.99
2016-09-10T03:59:18.899Z,99.99
2016-09-10T04:00:19.239Z,99.99
2016-09-10T04:01:18.950Z,99.99
2016-09-10T04:02:19.096Z,99.99
2016-09-10T04:03:18.997Z,99.99
2016-09-10T04:04:19.034Z,99.99
2016-09-10T04:05:33.974Z,99.99
2016-09-10T04:06:19.156Z,99.99
2016-09-10T04:07:19.105Z,99.99
2016-09-10T04:08:19.143Z,99.99
2016-09-10T04:09:19.458Z,99.99
2016-09-10T04:10:19.321Z,99.99
2016-09-10T04:11:19.225Z,99.99
2016-09-10T04:12:19.530Z,99.99
2016-09-10T04:13:19.253Z,99.99
2016-09-10T04:14:19.282Z,99.99
2016-09-10T04:15:19.301Z,99.99
2016-09-10T04:16:19.323Z,99.99
2016-09-10T04:18:19.377Z,99.99
2016-09-10T04:19:19.414Z,99.99
2016-09-10T04:20:19.440Z,99.99
2016-09-10T04:21:34.376Z,99.99
2016-09-10T04:22:19.482Z,99.99
2016-09-10T04:23:19.506Z,99.99
2016-09-10T04:24:19.529Z,99.99
2016-09-10T04:25:19.575Z,99.99
2016-09-10T04:26:19.599Z,99.99
2016-09-10T04:27:19.611Z,99.99
2016-09-10T04:28:19.675Z,99.99
2016-09-10T04:29:19.656Z,99.99
2016-09-10T04:30:19.992Z,99.99
2016-09-10T04:31:19.713Z,99.99
2016-09-10T04:32:19.754Z,99.99
2016-09-10T04:33:19.765Z,99.99
2016-09-10T04:34:19.782Z,99.99
2016-09-10T04:35:19.814Z,99.99
2016-09-10T04:36:19.838Z,99.99
2016-09-10T04:37:34.792Z,99.99
2016-09-10T04:38:20.180Z,99.99
2016-09-10T04:39:19.916Z,99.99
2016-09-10T04:40:19.933Z,99.99
2016-09-10T04:41:19.966Z,99.99
2016-09-10T04:42:19.979Z,99.99
2016-09-10T04:43:20.063Z,99.99
2016-09-10T04:44:20.339Z,99.99
2016-09-10T04:45:20.118Z,99.99
2016-09-10T04:46:20.280Z,99.99
2016-09-10T04:47:21.292Z,99.99
2016-09-10T04:48:20.132Z,99.99
2016-09-10T04:49:20.165Z,99.99
2016-09-10T04:50:20.341Z,99.99
2016-09-10T04:51:20.512Z,99.99
2016-09-10T04:52:20.274Z,99.99
2016-09-10T04:53:35.233Z,99.99
2016-09-10T04:54:20.625Z,99.99
2016-09-10T04:55:20.492Z,99.99
2016-09-10T04:56:20.347Z,99.99
2016-09-10T04:57:20.676Z,99.99
2016-09-10T04:58:20.386Z,99.99
2016-09-10T04:59:20.414Z,99.99
2016-09-10T05:00:20.439Z,99.99
2016-09-10T05:01:20.464Z,99.99
2016-09-10T05:02:20.491Z,99.99
2016-09-10T05:03:20.512Z,99.99
2016-09-10T05:04:20.540Z,99.99
2016-09-10T05:05:20.567Z,99.99
2016-09-10T05:06:20.583Z,99.99
2016-09-10T05:07:20.627Z,99.99
2016-09-10T05:08:35.560Z,99.99
2016-09-10T05:09:20.668Z,99.99
2016-09-10T05:10:20.747Z,99.99
2016-09-10T05:11:20.712Z,99.99
2016-09-10T05:12:20.739Z,99.99
2016-09-10T05:13:20.801Z,99.99
2016-09-10T05:14:20.892Z,99.99
2016-09-10T05:15:20.865Z,99.99
2016-09-10T05:16:21.142Z,99.99
2016-09-10T05:17:20.882Z,99.99
2016-09-10T05:18:20.902Z,99.99
2016-09-10T05:19:21.217Z,99.99
2016-09-10T05:20:20.938Z,99.99
2016-09-10T05:21:20.974Z,99.99
2016-09-10T05:22:21.010Z,99.99
2016-09-10T05:23:21.039Z,99.99
2016-09-10T05:24:21.063Z,99.99
2016-09-10T05:25:21.072Z,99.99
2016-09-10T05:26:21.098Z,99.99
2016-09-10T05:27:21.122Z,99.99
2016-09-10T05:28:21.177Z,99.99
2016-09-10T05:29:21.183Z,99.99
2016-09-10T05:30:21.600Z,99.99
2016-09-10T05:31:21.223Z,99.99
2016-09-10T05:32:21.269Z,99.99
2016-09-10T05:33:21.271Z,99.99
2016-09-10T05:34:21.295Z,99.99
2016-09-10T05:35:21.328Z,99.99
2016-09-10T05:36:21.369Z,99.99
2016-09-10T05:37:21.683Z,99.99
2016-09-10T05:38:21.426Z,99.99
2016-09-10T05:39:21.439Z,99.99
2016-09-10T05:40:36.376Z,99.99
2016-09-10T05:41:21.481Z,99.99
2016-09-10T05:42:21.517Z,99.99
2016-09-10T05:43:21.543Z,99.99
2016-09-10T05:44:21.573Z,99.99
2016-09-10T05:45:21.594Z,99.99
2016-09-10T05:46:21.933Z,99.99
2016-09-10T05:47:21.953Z,99.99
2016-09-10T05:48:21.665Z,99.99
2016-09-10T05:49:21.685Z,99.99
2016-09-10T05:50:21.723Z,99.99
2016-09-10T05:51:21.747Z,99.99
2016-09-10T05:52:21.811Z,99.99
2016-09-10T05:54:21.822Z,99.99
2016-09-10T05:55:22.145Z,99.99
2016-09-10T05:56:36.802Z,99.99
2016-09-10T05:57:21.962Z,99.99
2016-09-10T05:58:21.950Z,99.99
2016-09-10T05:59:21.951Z,99.2
2016-09-10T06:00:21.990Z,98.53
2016-09-10T06:01:21.998Z,98.34
2016-09-10T06:02:22.083Z,97.62
2016-09-10T06:03:22.065Z,97.04
2016-09-10T06:04:22.416Z,95.94
2016-09-10T06:05:22.109Z,95.75
2016-09-10T06:06:22.128Z,94.49
2016-09-10T06:07:22.174Z,93.87
2016-09-10T06:08:22.183Z,93.29
2016-09-10T06:09:22.266Z,92.13
2016-09-10T06:10:22.329Z,91.51
2016-09-10T06:11:22.354Z,90.73
2016-09-10T06:12:37.311Z,90.45
2016-09-10T06:13:22.334Z,90.35
2016-09-10T06:14:22.650Z,89.34
2016-09-10T06:15:22.435Z,88.76
2016-09-10T06:16:22.406Z,88.85
2016-09-10T06:17:22.432Z,87.51
2016-09-10T06:18:22.470Z,86.88
2016-09-10T06:19:22.490Z,86.4
2016-09-10T06:20:22.552Z,86.69
2016-09-10T06:21:22.556Z,86.25
2016-09-10T06:22:22.623Z,85.57
2016-09-10T06:23:22.618Z,84.61
2016-09-10T06:24:22.954Z,84.22
2016-09-10T06:25:22.674Z,84.61
2016-09-10T06:27:22.722Z,84.17
2016-09-10T06:28:37.678Z,84.17
2016-09-10T06:30:22.820Z,83.98
2016-09-10T06:31:22.848Z,83.4
2016-09-10T06:32:22.889Z,83.4
2016-09-10T06:33:22.912Z,83.11
2016-09-10T06:34:22.953Z,83.11
2016-09-10T06:35:22.969Z,83.2
2016-09-10T06:36:23.008Z,82.76
2016-09-10T06:37:23.022Z,81.7
2016-09-10T06:38:23.050Z,81.8
2016-09-10T06:39:23.114Z,82.38
2016-09-10T06:40:23.237Z,82.38
2016-09-10T06:41:23.156Z,83.25
2016-09-10T06:42:23.174Z,82.53
2016-09-10T06:43:38.132Z,83.05
2016-09-10T06:44:23.236Z,82.48
2016-09-10T06:45:23.262Z,82.09
2016-09-10T06:46:23.288Z,81.07
2016-09-10T06:47:23.325Z,80.49
2016-09-10T06:48:23.361Z,80.2
2016-09-10T06:49:23.398Z,79.37
2016-09-10T06:50:23.410Z,79.62
2016-09-10T06:51:23.453Z,79.56
2016-09-10T06:52:23.486Z,79.27
2016-09-10T06:53:23.517Z,78.69
2016-09-10T06:54:23.557Z,78.69
2016-09-10T06:55:23.566Z,78.59
2016-09-10T06:56:23.606Z,78.99
2016-09-10T06:57:23.628Z,78.59
2016-09-10T06:58:23.993Z,78.02
2016-09-10T07:00:24.055Z,77.8
2016-09-10T07:01:23.776Z,77.42
2016-09-10T07:02:23.804Z,76.29
2016-09-10T07:03:23.839Z,75.23
2016-09-10T07:04:23.848Z,75.71
2016-09-10T07:05:23.887Z,74.55
2016-09-10T07:06:24.011Z,74.85
2016-09-10T07:07:24.280Z,75.52
2016-09-10T07:08:24.342Z,75.33
2016-09-10T07:09:24.022Z,75.13
2016-09-10T07:10:24.207Z,74.59
2016-09-10T07:11:24.172Z,74.65
2016-09-10T07:12:24.106Z,75.13
2016-09-10T07:13:24.153Z,75.37
2016-09-10T07:14:24.190Z,74.3
2016-09-10T07:15:39.226Z,73.24
2016-09-10T07:16:24.272Z,73.57
2016-09-10T07:17:24.575Z,73.43
2016-09-10T07:18:24.304Z,73.85
2016-09-10T07:20:24.377Z,73.63
2016-09-10T07:21:24.452Z,73.95
2016-09-10T07:22:24.442Z,72.98
2016-09-10T07:23:24.466Z,71.95
2016-09-10T07:24:24.542Z,72.44
2016-09-10T07:25:24.539Z,70.92
2016-09-10T07:26:24.567Z,71.02
2016-09-10T07:27:24.899Z,71.37
2016-09-10T07:28:24.689Z,70.98
2016-09-10T07:29:24.683Z,70.98
2016-09-10T07:30:24.699Z,70.92
2016-09-10T07:31:39.670Z,71.02
2016-09-10T07:32:24.782Z,69.67
2016-09-10T07:33:24.852Z,70.15
2016-09-10T07:34:24.842Z,69.57
2016-09-10T07:35:24.869Z,70.15
2016-09-10T07:36:25.209Z,70.25
2016-09-10T07:37:24.945Z,69.21
2016-09-10T07:38:24.980Z,68.44
2016-09-10T07:39:24.999Z,68.73
2016-09-10T07:40:25.035Z,68.76
2016-09-10T07:41:25.070Z,68.54
2016-09-10T07:42:25.142Z,67.76
2016-09-10T07:43:25.136Z,68.28
2016-09-10T07:44:25.169Z,68.92
2016-09-10T07:45:25.208Z,68.44
2016-09-10T07:46:25.261Z,67.79
2016-09-10T07:47:40.194Z,67.18
2016-09-10T07:48:25.307Z,66.24
2016-09-10T07:49:25.340Z,65.47
2016-09-10T07:50:25.403Z,64.92
2016-09-10T07:51:25.404Z,65.3
2016-09-10T07:52:25.771Z,65.3
2016-09-10T07:53:25.470Z,65.98
2016-09-10T07:54:25.508Z,65.69
2016-09-10T07:55:25.538Z,65.11
2016-09-10T07:56:25.570Z,63.98
2016-09-10T07:57:25.912Z,64.56
2016-09-10T07:58:25.654Z,63.88
2016-09-10T07:59:25.689Z,63.01
2016-09-10T08:00:25.722Z,63.49
2016-09-10T08:01:25.799Z,63.59
2016-09-10T08:02:25.781Z,63.78
2016-09-10T08:03:40.745Z,63.29
2016-09-10T08:05:26.390Z,63.2
2016-09-10T08:06:25.919Z,62.07
2016-09-10T08:07:25.997Z,60.74
2016-09-10T08:08:25.985Z,60.35
2016-09-10T08:09:26.329Z,58.89
2016-09-10T08:10:26.123Z,59.67
2016-09-10T08:11:26.093Z,60.05
2016-09-10T08:12:26.425Z,60.05
2016-09-10T08:13:26.148Z,59.28
2016-09-10T08:14:26.486Z,59.67
2016-09-10T08:15:26.239Z,58.79
2016-09-10T08:16:26.293Z,57.65
2016-09-10T08:17:26.611Z,58.01
2016-09-10T08:18:41.252Z,58.69
2016-09-10T08:19:26.669Z,59.18
2016-09-10T08:20:26.394Z,60.44
2016-09-10T08:21:26.433Z,60.35
2016-09-10T08:22:26.767Z,58.89
2016-09-10T08:23:26.512Z,58.33
2016-09-10T08:24:26.542Z,58.62
2016-09-10T08:25:26.653Z,58.33
2016-09-10T08:26:26.809Z,57.75
2016-09-10T08:27:26.931Z,58.33
2016-09-10T08:28:26.665Z,56.61
2016-09-10T08:29:26.715Z,55.83
2016-09-10T08:30:26.861Z,56.22
2016-09-10T08:31:26.774Z,56.9
2016-09-10T08:32:26.802Z,55.74
2016-09-10T08:33:26.832Z,55.93
2016-09-10T08:34:26.872Z,53.55
2016-09-10T08:35:26.902Z,54.13
2016-09-10T08:36:26.953Z,53.04
2016-09-10T08:38:27.037Z,53.59
2016-09-10T08:39:27.048Z,54.15
2016-09-10T08:40:27.075Z,53.38
2016-09-10T08:41:27.109Z,53.3
2016-09-10T08:42:27.145Z,53.28
2016-09-10T08:44:27.514Z,52.55
2016-09-10T08:45:27.555Z,51.87
2016-09-10T08:46:27.295Z,51.39
2016-09-10T08:47:27.316Z,50.87
2016-09-10T08:48:27.357Z,51.36
2016-09-10T08:49:27.538Z,51.23
2016-09-10T08:50:42.341Z,52.26
2016-09-10T08:51:27.549Z,51.09
2016-09-10T08:52:27.486Z,51.67
2016-09-10T08:53:27.573Z,52.16
2016-09-10T08:54:27.560Z,50.9
2016-09-10T08:55:27.596Z,50.53
2016-09-10T08:56:27.623Z,49.56
2016-09-10T08:57:27.759Z,49.83
2016-09-10T08:58:27.691Z,49.76
2016-09-10T08:59:27.725Z,49.95
2016-09-10T09:00:27.755Z,50.43
2016-09-10T09:01:27.837Z,49.95
2016-09-10T09:02:27.876Z,49.56
2016-09-10T09:03:27.866Z,48.8
2016-09-10T09:04:27.900Z,49.19
2016-09-10T09:05:27.990Z,49.27
2016-09-10T09:06:42.887Z,48.68
2016-09-10T09:07:27.992Z,47.83
2016-09-10T09:08:28.033Z,48.61
2016-09-10T09:09:28.063Z,47.46
2016-09-10T09:10:28.103Z,47.05
2016-09-10T09:11:28.157Z,47.63
2016-09-10T09:12:28.203Z,47.36
2016-09-10T09:13:28.200Z,47.53
2016-09-10T09:14:28.536Z,47.25
2016-09-10T09:15:28.271Z,47.92
2016-09-10T09:16:28.301Z,47.63
2016-09-10T09:18:28.423Z,47.36
2016-09-10T09:19:28.404Z,46.66
2016-09-10T09:20:28.588Z,46.49
2016-09-10T09:22:43.433Z,47.46
2016-09-10T09:23:28.544Z,47.53
2016-09-10T09:24:28.575Z,49.39
2016-09-10T09:25:28.612Z,48.12
2016-09-10T09:26:28.647Z,48.14
2016-09-10T09:27:28.679Z,47.83
2016-09-10T09:28:28.714Z,47.75
2016-09-10T09:29:29.054Z,48.34
2016-09-10T09:30:28.803Z,49.39
2016-09-10T09:31:28.843Z,47.83
2016-09-10T09:32:28.857Z,47.85
2016-09-10T09:33:29.221Z,48.14
2016-09-10T09:36:29.292Z,47.95
2016-09-10T09:37:29.023Z,48.54
2016-09-10T09:38:43.984Z,49.37
2016-09-10T09:39:29.410Z,49.83
2016-09-10T09:40:29.150Z,49.92
2016-09-10T09:41:29.163Z,50.24
2016-09-10T09:42:29.240Z,49.27
2016-09-10T09:43:29.235Z,49.49
2016-09-10T09:44:29.385Z,48.71
2016-09-10T09:45:29.298Z,48.63
2016-09-10T09:46:29.323Z,48.05
2016-09-10T09:47:29.365Z,47.68
2016-09-10T09:48:29.410Z,47.09
2016-09-10T09:49:29.425Z,47.95
2016-09-10T09:50:29.460Z,48.34
2016-09-10T09:52:29.539Z,49.32
2016-09-10T09:53:44.511Z,48.24
2016-09-10T09:54:29.604Z,47.39
2016-09-10T09:55:30.183Z,48.17
2016-09-10T09:56:29.664Z,47.78
2016-09-10T09:57:29.699Z,46.8
2016-09-10T09:58:29.744Z,47.02
2016-09-10T09:59:29.772Z,47.02
2016-09-10T10:00:29.802Z,47.88
2016-09-10T10:01:29.858Z,50.36
2016-09-10T10:02:29.867Z,49.37
2016-09-10T10:03:29.905Z,49.83
2016-09-10T10:04:29.988Z,49.73
2016-09-10T10:05:29.966Z,50.99
2016-09-10T10:06:30.012Z,51.36
2016-09-10T10:07:30.055Z,51.53
2016-09-10T10:08:30.074Z,51.33
2016-09-10T10:09:30.110Z,52.89
2016-09-10T10:10:30.140Z,53.54
2016-09-10T10:11:30.178Z,52.96
2016-09-10T10:12:30.225Z,53.45
2016-09-10T10:13:30.241Z,53.93
2016-09-10T10:14:30.573Z,53.38
2016-09-10T10:15:30.309Z,53.11
2016-09-10T10:16:30.351Z,53.28
2016-09-10T10:17:30.371Z,53.67
2016-09-10T10:18:30.772Z,53.16
2016-09-10T10:20:30.474Z,53.97
2016-09-10T10:21:30.512Z,54.46
2016-09-10T10:22:30.606Z,54.94
2016-09-10T10:23:30.577Z,53.78
2016-09-10T10:24:30.949Z,54.27
2016-09-10T10:25:45.578Z,54.46
2016-09-10T10:26:30.683Z,54.27
2016-09-10T10:27:30.787Z,54
2016-09-10T10:28:30.750Z,54.2
2016-09-10T10:29:30.772Z,54.49
2016-09-10T10:30:31.121Z,54.2
2016-09-10T10:31:30.832Z,55.04
2016-09-10T10:32:31.191Z,54.82
2016-09-10T10:33:30.904Z,54.63
2016-09-10T10:34:31.238Z,54.92
2016-09-10T10:35:31.105Z,55.18
2016-09-10T10:36:31.006Z,55.41
2016-09-10T10:37:31.051Z,54.27
2016-09-10T10:39:31.098Z,52.84
2016-09-10T10:40:31.154Z,53.52
2016-09-10T10:41:46.087Z,52.74
2016-09-10T10:43:31.236Z,52.47
2016-09-10T10:44:31.281Z,52.45
2016-09-10T10:45:31.290Z,52.74
2016-09-10T10:46:31.321Z,53
2016-09-10T10:47:31.355Z,53.2
2016-09-10T10:48:31.389Z,53.97
2016-09-10T10:49:31.453Z,52.64
2016-09-10T10:50:31.465Z,52.35
2016-09-10T10:51:31.488Z,52.94
2016-09-10T10:52:31.512Z,53.32
2016-09-10T10:53:31.546Z,53.78
2016-09-10T10:54:31.575Z,53.78
2016-09-10T10:55:31.612Z,53.69
2016-09-10T10:56:31.638Z,53.39
2016-09-10T10:57:46.609Z,53.88
2016-09-10T10:58:31.717Z,53.2
2016-09-10T10:59:32.035Z,53.2
2016-09-10T11:00:31.773Z,52.06
2016-09-10T11:01:31.813Z,52.64
2016-09-10T11:02:31.828Z,52.19
2016-09-10T11:03:31.988Z,52.37
2016-09-10T11:04:31.898Z,53.06
2016-09-10T11:05:31.927Z,53.06
2016-09-10T11:06:31.958Z,52.4
2016-09-10T11:07:31.992Z,52.59
2016-09-10T11:08:32.022Z,51.4
2016-09-10T11:09:32.066Z,51.7
2016-09-10T11:10:32.395Z,51.89
2016-09-10T11:11:32.116Z,52.09
2016-09-10T11:12:32.157Z,52.25
2016-09-10T11:13:47.105Z,52.42
2016-09-10T11:14:32.210Z,52.15
2016-09-10T11:15:32.246Z,52.84
2016-09-10T11:16:32.351Z,52.74
2016-09-10T11:17:32.344Z,52.19
2016-09-10T11:18:32.339Z,52.37
2016-09-10T11:19:32.398Z,51.5
2016-09-10T11:20:32.403Z,52.28
2016-09-10T11:21:32.484Z,52.57
2016-09-10T11:22:32.479Z,52.37
2016-09-10T11:23:32.843Z,52.19
2016-09-10T11:24:32.617Z,52.28
2016-09-10T11:25:32.582Z,52.19
2016-09-10T11:26:32.597Z,52.76
2016-09-10T11:27:32.638Z,51.53
2016-09-10T11:28:47.576Z,51.6
2016-09-10T11:29:32.682Z,51.21
2016-09-10T11:30:32.709Z,51.31
2016-09-10T11:31:32.758Z,51.99
2016-09-10T11:32:32.782Z,52.09
2016-09-10T11:33:32.814Z,51.11
2016-09-10T11:34:32.892Z,50.43
2016-09-10T11:35:32.871Z,50.43
2016-09-10T11:36:32.904Z,50.73
2016-09-10T11:37:32.934Z,51.89
2016-09-10T11:38:32.969Z,50.92
2016-09-10T11:39:33.001Z,50.73
2016-09-10T11:41:33.212Z,51.11
2016-09-10T11:42:33.089Z,50.73
2016-09-10T11:43:33.227Z,51.31
2016-09-10T11:44:33.169Z,51.31
2016-09-10T11:45:33.187Z,51.89
2016-09-10T11:46:33.225Z,51.21
2016-09-10T11:47:33.248Z,50.73
2016-09-10T11:48:33.275Z,50.8
2016-09-10T11:49:33.307Z,51.48
2016-09-10T11:51:33.375Z,51.31
2016-09-10T11:52:33.399Z,50.89
2016-09-10T11:53:33.429Z,52.15
2016-09-10T11:55:33.495Z,52.62
2016-09-10T11:56:33.616Z,52.23
2016-09-10T11:57:33.576Z,52.23
2016-09-10T11:58:33.585Z,52.42
2016-09-10T11:59:33.619Z,52.52
2016-09-10T12:00:48.569Z,52.33
2016-09-10T12:01:33.682Z,52.25
2016-09-10T12:02:34.330Z,51.77
2016-09-10T12:03:33.782Z,51.38
2016-09-10T12:04:33.763Z,51.28
2016-09-10T12:05:33.803Z,52.09
2016-09-10T12:06:33.829Z,51.79
2016-09-10T12:07:33.867Z,51.43
2016-09-10T12:08:34.357Z,50.75
2016-09-10T12:09:33.924Z,50.75
2016-09-10T12:10:33.975Z,50.75
2016-09-10T12:12:34.014Z,50.36
2016-09-10T12:13:34.364Z,51.14
2016-09-10T12:14:34.087Z,50.56
2016-09-10T12:15:34.159Z,50.65
2016-09-10T12:16:49.062Z,50.65
2016-09-10T12:17:34.170Z,50.48
2016-09-10T12:18:34.206Z,50.46
2016-09-10T12:19:34.235Z,50.56
2016-09-10T12:20:34.261Z,50.48
2016-09-10T12:21:34.597Z,50.09
2016-09-10T12:22:34.325Z,50.36
2016-09-10T12:23:34.397Z,51.17
2016-09-10T12:24:34.399Z,50.29
2016-09-10T12:25:34.415Z,50.38
2016-09-10T12:26:34.448Z,50.58
2016-09-10T12:27:34.532Z,51.26
2016-09-10T12:28:34.562Z,50.68
2016-09-10T12:30:34.579Z,50.38
2016-09-10T12:31:34.764Z,50.68
2016-09-10T12:32:49.582Z,50.48
2016-09-10T12:33:34.692Z,50.48
2016-09-10T12:34:35.009Z,50.75
2016-09-10T12:35:34.782Z,50.56
2016-09-10T12:36:34.758Z,51.33
2016-09-10T12:37:34.790Z,50.38
2016-09-10T12:38:34.825Z,50.48
2016-09-10T12:39:35.154Z,50.19
2016-09-10T12:40:34.992Z,50.58
2016-09-10T12:41:34.911Z,50.19
2016-09-10T12:42:34.940Z,49.15
2016-09-10T12:43:34.982Z,49.51
2016-09-10T12:44:35.014Z,49.99
2016-09-10T12:45:35.070Z,49.99
2016-09-10T12:46:35.118Z,49.99
2016-09-10T12:47:35.108Z,49.83
2016-09-10T12:48:50.054Z,49.73
2016-09-10T12:49:35.169Z,50.68
2016-09-10T12:50:35.197Z,50.78
2016-09-10T12:51:35.622Z,50.38
2016-09-10T12:52:35.590Z,50.58
2016-09-10T12:53:35.293Z,50.48
2016-09-10T12:54:35.320Z,50.68
2016-09-10T12:55:35.347Z,51.17
2016-09-10T12:57:35.410Z,50.58
2016-09-10T12:58:35.444Z,50.58
2016-09-10T12:59:35.722Z,50.58
2016-09-10T13:00:35.812Z,50.48
2016-09-10T13:01:35.564Z,50.38
2016-09-10T13:02:35.563Z,49.9
2016-09-10T13:03:50.521Z,50.48
2016-09-10T13:04:35.716Z,49.99
2016-09-10T13:05:35.691Z,49.87
2016-09-10T13:06:35.700Z,50.46
2016-09-10T13:07:35.725Z,50.36
2016-09-10T13:08:35.764Z,50.85
2016-09-10T13:09:35.778Z,50.75
2016-09-10T13:10:36.108Z,50.65
2016-09-10T13:11:35.847Z,50.46
2016-09-10T13:12:35.901Z,50.46
2016-09-10T13:13:35.905Z,50.65
2016-09-10T13:14:35.961Z,50.56
2016-09-10T13:15:36.091Z,50.68
2016-09-10T13:16:36.021Z,50.19
2016-09-10T13:17:36.055Z,50.38
2016-09-10T13:18:36.057Z,50.46
2016-09-10T13:19:36.087Z,49.87
2016-09-10T13:20:36.122Z,50.46
2016-09-10T13:21:36.150Z,50.85
2016-09-10T13:22:36.179Z,50.65
2016-09-10T13:23:36.551Z,50.36
2016-09-10T13:24:36.244Z,50.56
2016-09-10T13:25:36.276Z,50.85
2016-09-10T13:26:36.623Z,51.04
2016-09-10T13:27:36.334Z,50.75
2016-09-10T13:28:36.393Z,50.56